Time;durP1;ratioP1;P1;durP2;ratioP2;P2;SDS_P1;SDS_P2;PMS_P1;PMS_P2;Temp;Humidity;BMP_temperature;BMP_pressure;BME280_temperature;BME280_humidity;BME280_pressure;Samples;Min_cycle;Max_cycle;Signal;HPM_P1;HPM_P2
2022/01/29 00:01:36;;;;;;;19.13;11.07;;;11.80;63.80;;;;;;5039938;28;20151;-77
2022/01/29 00:04:02;;;;;;;15.98;10.70;;;11.80;63.10;;;;;;5043818;28;20083;-75
2022/01/29 00:06:30;;;;;;;14.68;10.73;;;11.70;62.80;;;;;;5047342;28;20039;-73
2022/01/29 00:08:59;;;;;;;19.58;11.35;;;11.90;63.10;;;;;;5049036;28;20125;-75
2022/01/29 00:11:30;;;;;;;17.90;11.20;;;11.80;63.80;;;;;;5024318;28;20052;-76
2022/01/29 00:13:57;;;;;;;17.27;10.68;;;11.80;63.10;;;;;;5039738;28;20043;-73
2022/01/29 00:16:23;;;;;;;16.60;11.57;;;11.90;63.00;;;;;;5015306;28;20045;-75
2022/01/29 00:18:52;;;;;;;16.50;11.75;;;11.90;63.00;;;;;;5040944;28;20034;-74
2022/01/29 00:21:18;;;;;;;16.95;11.40;;;11.90;62.80;;;;;;5038529;28;20025;-73
2022/01/29 00:23:44;;;;;;;19.67;12.00;;;12.10;62.80;;;;;;5037879;28;20393;-77
2022/01/29 00:26:11;;;;;;;16.67;11.60;;;12.10;62.50;;;;;;5038741;28;20077;-74
2022/01/29 00:28:37;;;;;;;18.98;11.57;;;12.20;62.30;;;;;;5028590;28;20037;-74
2022/01/29 00:31:05;;;;;;;16.83;12.55;;;12.40;62.00;;;;;;5043797;28;20129;-78
2022/01/29 00:33:31;;;;;;;19.88;12.85;;;12.50;61.90;;;;;;5036733;28;20042;-72
2022/01/29 00:35:58;;;;;;;18.75;12.75;;;12.70;61.30;;;;;;5044664;28;20037;-81
2022/01/29 00:38:24;;;;;;;20.77;13.15;;;12.70;61.30;;;;;;5042256;28;20412;-73
2022/01/29 00:40:50;;;;;;;21.30;12.10;;;12.50;61.90;;;;;;5046117;28;20050;-76
2022/01/29 00:43:17;;;;;;;18.52;13.00;;;12.60;61.70;;;;;;5041768;28;20037;-78
2022/01/29 00:45:44;;;;;;;19.25;12.63;;;12.60;61.60;;;;;;5050098;28;20061;-72
2022/01/29 00:48:10;;;;;;;19.17;13.30;;;12.60;61.60;;;;;;5038577;28;20128;-79
2022/01/29 00:50:36;;;;;;;18.08;12.98;;;12.60;62.00;;;;;;5038585;28;20381;-73
2022/01/29 00:53:03;;;;;;;19.95;13.25;;;12.50;62.00;;;;;;5043355;28;20069;-73
2022/01/29 00:55:30;;;;;;;16.60;12.88;;;12.60;61.80;;;;;;5018535;28;20038;-76
2022/01/29 00:57:55;;;;;;;16.23;12.00;;;12.50;61.70;;;;;;5049258;28;20044;-72
2022/01/29 01:00:23;;;;;;;16.50;12.23;;;12.50;61.80;;;;;;5043517;28;20037;-78
2022/01/29 01:02:51;;;;;;;18.10;12.48;;;12.50;61.40;;;;;;5031519;28;20025;-73
2022/01/29 01:05:20;;;;;;;18.40;12.20;;;12.40;61.30;;;;;;5042370;28;20056;-75
2022/01/29 01:07:46;;;;;;;15.93;11.82;;;12.40;61.20;;;;;;5043881;28;20040;-72
2022/01/29 01:10:15;;;;;;;19.20;12.85;;;12.50;61.20;;;;;;5034502;28;20037;-73
2022/01/29 01:12:42;;;;;;;19.85;13.35;;;12.80;60.90;;;;;;5036249;28;20091;-73
2022/01/29 01:15:09;;;;;;;19.02;14.07;;;12.80;61.60;;;;;;5055927;28;20492;-77
2022/01/29 01:17:35;;;;;;;23.50;15.75;;;12.80;61.90;;;;;;5045537;28;20032;-73
2022/01/29 01:20:03;;;;;;;19.73;14.63;;;12.90;62.40;;;;;;5051718;28;20034;-74
2022/01/29 01:22:32;;;;;;;25.80;15.68;;;12.90;62.50;;;;;;5045266;28;20094;-73
2022/01/29 01:24:58;;;;;;;21.42;15.23;;;13.10;62.30;;;;;;5048974;28;20130;-72
2022/01/29 01:27:24;;;;;;;24.35;15.13;;;13.20;61.80;;;;;;5025847;28;20107;-74
2022/01/29 01:29:51;;;;;;;19.83;14.65;;;13.30;61.50;;;;;;5035213;28;20555;-78
2022/01/29 01:32:18;;;;;;;26.13;14.73;;;13.30;61.60;;;;;;5030335;28;20037;-73
2022/01/29 01:34:49;;;;;;;18.00;13.75;;;13.30;61.60;;;;;;5044181;28;20396;-76
2022/01/29 01:37:31;;;;;;;22.60;14.18;;;13.40;61.50;;;;;;5047269;28;20048;-78
2022/01/29 01:39:58;;;;;;;20.88;15.88;;;13.20;61.50;;;;;;5036770;28;20128;-74
2022/01/29 01:42:25;;;;;;;25.02;15.85;;;13.20;62.00;;;;;;5045560;28;20535;-79
2022/01/29 01:44:53;;;;;;;21.15;15.95;;;13.00;62.70;;;;;;5043967;28;20860;-75
2022/01/29 01:47:20;;;;;;;25.50;16.67;;;13.00;63.10;;;;;;5044693;28;20578;-72
2022/01/29 01:49:47;;;;;;;25.40;16.75;;;13.00;63.20;;;;;;5042224;28;20033;-78
2022/01/29 01:52:15;;;;;;;24.52;15.48;;;12.90;63.30;;;;;;5042649;28;20468;-73
2022/01/29 01:54:44;;;;;;;30.95;15.75;;;12.90;63.00;;;;;;5044365;28;20491;-79
2022/01/29 01:57:11;;;;;;;23.27;16.08;;;13.00;62.50;;;;;;5040505;28;20033;-77
2022/01/29 01:59:37;;;;;;;22.85;14.55;;;13.00;62.60;;;;;;5046819;28;20057;-74
2022/01/29 02:02:04;;;;;;;21.65;14.70;;;13.20;62.30;;;;;;5046322;28;20049;-78
2022/01/29 02:04:36;;;;;;;22.42;16.38;;;13.10;62.30;;;;;;5047943;28;20459;-74
2022/01/29 02:07:03;;;;;;;23.47;15.93;;;13.10;62.60;;;;;;5036587;28;20045;-78
2022/01/29 02:09:33;;;;;;;22.60;15.82;;;13.00;63.00;;;;;;5039045;28;20041;-73
2022/01/29 02:12:02;;;;;;;22.20;14.02;;;12.90;63.10;;;;;;5025687;28;20143;-74
2022/01/29 02:14:31;;;;;;;23.02;15.00;;;13.00;62.90;;;;;;5048432;28;20207;-72
2022/01/29 02:17:00;;;;;;;21.17;14.88;;;13.00;63.10;;;;;;5044306;28;20127;-74
2022/01/29 02:19:27;;;;;;;18.70;13.63;;;13.00;63.00;;;;;;5028645;28;20029;-73
2022/01/29 02:21:54;;;;;;;19.63;13.95;;;13.00;62.40;;;;;;5030150;28;20041;-75
2022/01/29 02:24:20;;;;;;;20.98;14.95;;;13.10;62.20;;;;;;5042241;28;20120;-73
2022/01/29 02:26:46;;;;;;;23.42;14.82;;;13.10;62.30;;;;;;5048060;28;20041;-77
2022/01/29 02:29:15;;;;;;;20.50;14.05;;;13.10;62.70;;;;;;5038773;28;20649;-73
2022/01/29 02:31:57;;;;;;;18.88;14.02;;;13.00;62.40;;;;;;5046740;28;20037;-73
2022/01/29 02:34:24;;;;;;;19.88;14.32;;;13.10;62.30;;;;;;5042973;28;20448;-76
2022/01/29 02:36:52;;;;;;;25.25;14.85;;;13.20;62.00;;;;;;5044107;28;20124;-73
2022/01/29 02:39:21;;;;;;;20.02;14.68;;;13.20;62.30;;;;;;5043735;28;20041;-73
2022/01/29 02:41:47;;;;;;;23.60;15.35;;;13.10;62.20;;;;;;5043200;28;20033;-73
2022/01/29 02:44:19;;;;;;;19.70;13.98;;;13.10;61.80;;;;;;5025491;28;20064;-74
2022/01/29 02:46:54;;;;;;;21.90;14.57;;;13.20;61.10;;;;;;5026338;28;20045;-72
2022/01/29 02:49:24;;;;;;;21.05;14.32;;;13.30;61.00;;;;;;5045254;28;20033;-73
2022/01/29 02:51:52;;;;;;;19.85;15.00;;;13.30;61.60;;;;;;5041479;28;20056;-77
2022/01/29 02:54:19;;;;;;;20.33;13.77;;;13.30;61.50;;;;;;5050330;28;20358;-74
2022/01/29 02:56:45;;;;;;;20.08;14.10;;;13.30;61.20;;;;;;5030119;28;20036;-76
2022/01/29 02:59:12;;;;;;;18.85;12.27;;;13.40;61.10;;;;;;5043689;28;20056;-74
2022/01/29 03:01:39;;;;;;;18.65;13.45;;;13.40;60.80;;;;;;5043394;28;20044;-79
2022/01/29 03:04:06;;;;;;;24.73;13.80;;;13.50;60.80;;;;;;5031605;28;20037;-73
2022/01/29 03:06:33;;;;;;;17.73;12.75;;;13.30;60.90;;;;;;5055495;28;20082;-75
2022/01/29 03:09:00;;;;;;;18.50;12.95;;;13.30;61.00;;;;;;5043369;28;20067;-73
2022/01/29 03:11:26;;;;;;;18.30;12.80;;;13.30;61.10;;;;;;5026644;28;20045;-79
2022/01/29 03:13:52;;;;;;;21.20;13.63;;;13.20;61.20;;;;;;5027973;28;20046;-72
2022/01/29 03:16:20;;;;;;;18.38;13.45;;;13.20;61.20;;;;;;5037747;28;20033;-72
2022/01/29 03:18:47;;;;;;;17.75;13.55;;;13.10;61.40;;;;;;5040464;28;20033;-73
2022/01/29 03:21:13;;;;;;;18.98;12.55;;;13.00;61.80;;;;;;5039186;28;20034;-75
2022/01/29 03:23:41;;;;;;;19.02;12.57;;;12.90;62.00;;;;;;5040607;28;20044;-75
2022/01/29 03:26:07;;;;;;;17.05;11.65;;;12.90;62.10;;;;;;5039954;28;20491;-78
2022/01/29 03:28:34;;;;;;;17.05;11.60;;;12.70;61.70;;;;;;5047653;28;20029;-74
2022/01/29 03:31:00;;;;;;;16.15;11.02;;;12.70;61.50;;;;;;5037590;28;20041;-73
2022/01/29 03:33:26;;;;;;;18.60;11.38;;;12.80;61.40;;;;;;5052419;28;20033;-76
2022/01/29 03:35:52;;;;;;;15.95;11.80;;;12.80;61.00;;;;;;5051610;28;20047;-72
2022/01/29 03:38:19;;;;;;;15.15;11.50;;;12.80;61.30;;;;;;5040865;28;20226;-75
2022/01/29 03:40:49;;;;;;;17.65;11.93;;;12.70;61.50;;;;;;5045153;28;20124;-74
2022/01/29 03:43:24;;;;;;;20.35;12.05;;;12.60;61.70;;;;;;5023109;28;20037;-75
2022/01/29 03:45:51;;;;;;;20.10;13.02;;;12.40;62.00;;;;;;5028717;28;20087;-76
2022/01/29 03:48:18;;;;;;;18.38;12.82;;;12.30;63.40;;;;;;5037713;28;20049;-74
2022/01/29 03:50:44;;;;;;;24.98;13.18;;;12.10;64.30;;;;;;5036364;28;20379;-76
2022/01/29 03:53:11;;;;;;;21.30;13.85;;;12.10;64.50;;;;;;5040042;28;20033;-76
2022/01/29 03:55:38;;;;;;;22.38;13.90;;;11.90;64.60;;;;;;5060825;28;20033;-73
2022/01/29 03:58:06;;;;;;;16.65;11.75;;;11.70;65.20;;;;;;5042276;28;20060;-75
2022/01/29 04:00:32;;;;;;;21.38;14.43;;;11.80;64.30;;;;;;5035461;28;20416;-79
2022/01/29 04:02:58;;;;;;;24.10;14.93;;;11.80;65.10;;;;;;5056001;28;20144;-76
2022/01/29 04:05:28;;;;;;;25.27;16.23;;;11.80;67.20;;;;;;5041972;28;20449;-72
2022/01/29 04:07:54;;;;;;;25.38;16.67;;;11.60;67.60;;;;;;5042356;28;20040;-72
2022/01/29 04:10:22;;;;;;;24.00;16.58;;;11.40;67.80;;;;;;5041982;28;20079;-76
2022/01/29 04:12:52;;;;;;;25.25;17.85;;;11.30;68.10;;;;;;5057795;28;20060;-72
2022/01/29 04:15:18;;;;;;;17.92;10.90;;;11.20;69.50;;;;;;5047388;28;20063;-74
2022/01/29 04:17:46;;;;;;;20.65;13.05;;;11.60;65.00;;;;;;5045596;28;20034;-77
2022/01/29 04:20:13;;;;;;;26.17;15.90;;;11.70;65.20;;;;;;5040848;28;20044;-73
2022/01/29 04:22:41;;;;;;;29.85;17.50;;;11.60;66.20;;;;;;5044485;28;20033;-73
2022/01/29 04:25:08;;;;;;;21.00;13.98;;;11.50;68.00;;;;;;5040891;28;20040;-73
2022/01/29 04:27:44;;;;;;;21.25;14.35;;;11.40;66.40;;;;;;5045514;28;20112;-76
2022/01/29 04:30:31;;;;;;;24.67;17.05;;;11.60;66.10;;;;;;5035612;28;20123;-76
2022/01/29 04:33:23;;;;;;;26.70;17.60;;;11.40;68.20;;;;;;5023340;28;20059;-76
2022/01/29 04:35:54;;;;;;;21.88;14.73;;;11.30;69.00;;;;;;5045123;28;20091;-72
2022/01/29 04:38:21;;;;;;;26.48;17.63;;;11.30;67.50;;;;;;5039023;28;20029;-77
2022/01/29 04:40:47;;;;;;;26.08;19.13;;;11.10;69.90;;;;;;5042425;28;20037;-72
2022/01/29 04:43:14;;;;;;;30.10;18.50;;;10.90;70.60;;;;;;5040042;28;20319;-77
2022/01/29 04:45:41;;;;;;;30.75;17.90;;;10.80;71.00;;;;;;5027792;28;20060;-72
2022/01/29 04:48:07;;;;;;;28.63;18.95;;;10.70;71.10;;;;;;5047782;28;20033;-77
2022/01/29 04:50:34;;;;;;;28.08;17.65;;;10.60;74.00;;;;;;5034373;28;20095;-73
2022/01/29 04:53:04;;;;;;;26.40;18.13;;;10.40;73.80;;;;;;5023761;28;20551;-73
2022/01/29 04:55:33;;;;;;;24.23;17.77;;;10.30;73.30;;;;;;5043565;28;20047;-77
2022/01/29 04:57:59;;;;;;;27.17;17.38;;;10.20;74.20;;;;;;5041297;28;20712;-74
2022/01/29 05:00:27;;;;;;;31.23;18.88;;;10.00;74.00;;;;;;5015933;28;20038;-79
2022/01/29 05:02:56;;;;;;;28.77;18.33;;;10.10;74.40;;;;;;5039804;28;20469;-73
2022/01/29 05:05:23;;;;;;;26.65;17.58;;;10.20;74.50;;;;;;5035813;28;20149;-74
2022/01/29 05:07:49;;;;;;;30.55;17.63;;;10.10;74.00;;;;;;5023420;28;20033;-74
2022/01/29 05:10:16;;;;;;;32.17;18.88;;;10.00;74.90;;;;;;5035835;28;20444;-73
2022/01/29 05:12:49;;;;;;;25.50;17.20;;;10.00;75.80;;;;;;5040784;28;20117;-77
2022/01/29 05:28:52;;;;;;;22.15;14.38;;;11.00;68.80;;;;;;5042325;28;20055;-77
2022/01/29 05:31:18;;;;;;;21.02;13.85;;;10.90;68.70;;;;;;5043758;28;20049;-76
2022/01/29 05:33:45;;;;;;;26.85;15.25;;;10.90;69.50;;;;;;5043507;28;20037;-72
2022/01/29 05:36:11;;;;;;;24.30;14.20;;;11.10;69.50;;;;;;5028878;28;20102;-77
2022/01/29 05:38:37;;;;;;;22.13;15.02;;;11.20;68.90;;;;;;5043414;28;20101;-73
2022/01/29 05:41:05;;;;;;;23.58;15.20;;;11.00;68.60;;;;;;5044018;28;20037;-73
2022/01/29 05:43:33;;;;;;;19.60;13.18;;;10.80;71.00;;;;;;5050199;28;20047;-73
2022/01/29 05:45:59;;;;;;;19.40;13.15;;;10.90;68.90;;;;;;5051124;28;20271;-75
2022/01/29 05:48:26;;;;;;;18.92;13.02;;;10.80;69.30;;;;;;5043441;28;20101;-73
2022/01/29 05:50:52;;;;;;;20.50;13.30;;;11.10;68.50;;;;;;5041610;28;20041;-75
2022/01/29 05:53:19;;;;;;;16.00;11.50;;;11.00;69.50;;;;;;5038139;28;20095;-77
2022/01/29 05:55:45;;;;;;;17.45;11.80;;;10.90;67.90;;;;;;5040712;28;20268;-71
2022/01/29 05:58:13;;;;;;;17.88;11.00;;;11.10;67.80;;;;;;5041732;28;20755;-77
2022/01/29 06:04:45;;;;;;;19.45;9.70;;;11.30;66.60;;;;;;5020401;28;20104;-72
2022/01/29 06:07:11;;;;;;;16.67;10.57;;;11.40;66.00;;;;;;5040164;28;20539;-74
2022/01/29 06:09:38;;;;;;;14.23;10.15;;;11.50;65.30;;;;;;5045172;28;20037;-77
2022/01/29 06:12:05;;;;;;;17.08;12.45;;;11.40;65.30;;;;;;5042670;28;20056;-73
2022/01/29 06:14:30;;;;;;;17.83;11.73;;;11.50;66.70;;;;;;5049033;28;20041;-78
2022/01/29 06:16:58;;;;;;;16.83;12.18;;;11.30;68.30;;;;;;5043262;28;20033;-73
2022/01/29 06:19:23;;;;;;;15.55;11.27;;;11.00;68.00;;;;;;5042509;28;20034;-75
2022/01/29 06:21:51;;;;;;;18.00;11.30;;;11.10;67.20;;;;;;5016188;28;20438;-76
2022/01/29 06:24:17;;;;;;;20.30;10.98;;;11.20;66.80;;;;;;5034045;28;20036;-73
2022/01/29 06:26:44;;;;;;;16.77;10.10;;;11.20;66.00;;;;;;5046080;28;20034;-78
2022/01/29 06:29:10;;;;;;;13.38;9.88;;;11.20;65.20;;;;;;5034310;28;20069;-72
2022/01/29 06:31:36;;;;;;;19.15;10.73;;;11.40;65.00;;;;;;5042908;28;20064;-73
2022/01/29 06:34:05;;;;;;;15.32;9.82;;;11.40;65.60;;;;;;5035974;28;20048;-78
2022/01/29 06:36:31;;;;;;;15.23;10.63;;;11.40;65.40;;;;;;5040380;28;20481;-75
2022/01/29 06:38:58;;;;;;;13.73;9.90;;;11.40;65.40;;;;;;5041164;28;20110;-79
2022/01/29 06:41:25;;;;;;;17.45;10.48;;;11.50;65.40;;;;;;5041778;28;20037;-72
2022/01/29 06:43:52;;;;;;;14.63;10.48;;;11.40;65.60;;;;;;5034682;28;20041;-73
2022/01/29 06:46:18;;;;;;;16.88;11.32;;;11.40;65.90;;;;;;5040715;28;20044;-73
2022/01/29 06:48:44;;;;;;;17.35;12.18;;;11.20;66.40;;;;;;5043734;28;20128;-77
2022/01/29 06:51:16;;;;;;;18.13;11.50;;;11.00;67.10;;;;;;5039864;28;20393;-75
2022/01/29 06:53:42;;;;;;;18.73;12.00;;;10.80;68.10;;;;;;5052212;28;20033;-72
2022/01/29 06:56:08;;;;;;;19.67;13.63;;;10.90;69.30;;;;;;5040165;28;20131;-78
2022/01/29 06:58:36;;;;;;;19.92;13.65;;;10.80;71.00;;;;;;5049641;28;20091;-72
2022/01/29 07:01:03;;;;;;;23.63;14.63;;;10.60;72.40;;;;;;5036468;28;20476;-78
2022/01/29 07:03:29;;;;;;;22.08;15.10;;;10.40;73.10;;;;;;5029185;28;20430;-74
2022/01/29 07:05:56;;;;;;;24.83;14.48;;;10.20;73.60;;;;;;5027336;28;20049;-74
2022/01/29 07:08:23;;;;;;;21.00;14.70;;;10.10;74.00;;;;;;5036635;28;20052;-80
2022/01/29 07:10:51;;;;;;;22.70;14.55;;;10.10;74.40;;;;;;5031133;28;20586;-73
2022/01/29 07:13:20;;;;;;;23.27;13.82;;;10.00;74.30;;;;;;5007799;28;20037;-78
2022/01/29 07:15:47;;;;;;;20.25;13.35;;;10.00;72.80;;;;;;5032133;28;20040;-79
2022/01/29 07:18:13;;;;;;;24.05;13.68;;;10.00;73.10;;;;;;5040759;28;20040;-74
2022/01/29 07:20:40;;;;;;;19.50;13.45;;;9.80;74.40;;;;;;5046470;28;20115;-75
2022/01/29 07:23:07;;;;;;;17.98;12.68;;;9.80;75.40;;;;;;5043397;28;20507;-73
2022/01/29 07:25:36;;;;;;;22.58;12.23;;;9.70;74.80;;;;;;5051111;28;20429;-78
2022/01/29 07:28:02;;;;;;;20.38;12.88;;;9.80;74.60;;;;;;5047206;28;20094;-79
2022/01/29 07:30:29;;;;;;;20.88;12.80;;;9.80;74.50;;;;;;5042329;28;20048;-76
2022/01/29 07:32:54;;;;;;;21.83;13.25;;;9.90;74.60;;;;;;5040324;28;20396;-73
2022/01/29 07:35:20;;;;;;;23.50;14.77;;;9.90;74.40;;;;;;5046433;28;20097;-77
2022/01/29 07:37:47;;;;;;;23.30;13.98;;;9.90;75.00;;;;;;5061387;28;20147;-75
2022/01/29 07:40:13;;;;;;;23.40;14.30;;;9.80;75.10;;;;;;5042218;28;20060;-74
2022/01/29 07:42:39;;;;;;;19.25;14.38;;;9.70;75.70;;;;;;5027086;28;20032;-78
2022/01/29 07:45:07;;;;;;;19.02;13.10;;;9.70;75.60;;;;;;5050251;28;20056;-76
2022/01/29 07:47:33;;;;;;;21.75;14.10;;;9.80;76.30;;;;;;5048121;28;20377;-79
2022/01/29 07:50:00;;;;;;;21.35;13.63;;;9.80;75.90;;;;;;5041699;28;20045;-75
2022/01/29 07:52:27;;;;;;;22.08;14.68;;;9.80;76.70;;;;;;5038006;28;20060;-78
2022/01/29 07:54:53;;;;;;;24.10;14.68;;;9.80;76.80;;;;;;5046134;28;20029;-74
2022/01/29 07:57:19;;;;;;;22.85;14.65;;;9.90;77.30;;;;;;5041698;28;20514;-74
2022/01/29 07:59:45;;;;;;;22.65;15.25;;;10.00;77.20;;;;;;5041447;28;20112;-78
2022/01/29 08:02:12;;;;;;;22.90;15.55;;;10.00;77.50;;;;;;5030589;28;20034;-75
2022/01/29 08:04:39;;;;;;;22.38;14.73;;;10.10;77.70;;;;;;5041780;28;20071;-78
2022/01/29 08:07:06;;;;;;;21.45;14.60;;;10.10;77.40;;;;;;5046257;28;20032;-75
2022/01/29 08:09:32;;;;;;;29.45;15.35;;;10.10;77.10;;;;;;5042414;28;20029;-78
2022/01/29 08:11:59;;;;;;;22.85;14.70;;;10.20;77.40;;;;;;5049092;28;20037;-75
2022/01/29 08:14:26;;;;;;;21.25;14.68;;;10.40;76.50;;;;;;5043065;28;20504;-76
2022/01/29 08:16:52;;;;;;;19.55;14.65;;;10.40;76.30;;;;;;5046864;28;20172;-73
2022/01/29 08:19:19;;;;;;;21.80;13.98;;;10.50;76.20;;;;;;5032927;28;20086;-75
2022/01/29 08:21:45;;;;;;;26.48;14.88;;;10.50;76.00;;;;;;5056905;28;20041;-77
2022/01/29 08:24:10;;;;;;;24.75;14.57;;;10.60;76.20;;;;;;5043687;28;20049;-73
2022/01/29 08:26:38;;;;;;;26.67;16.17;;;10.60;76.20;;;;;;5034935;28;20056;-74
2022/01/29 08:29:03;;;;;;;23.48;15.75;;;10.80;76.40;;;;;;5041592;28;20051;-73
2022/01/29 08:31:29;;;;;;;24.73;16.23;;;10.80;76.80;;;;;;5042026;28;20045;-74
2022/01/29 08:33:55;;;;;;;23.15;16.48;;;11.10;76.90;;;;;;5044081;28;20056;-73
2022/01/29 08:36:21;;;;;;;23.35;16.02;;;13.10;75.90;;;;;;5041515;28;20037;-78
2022/01/29 08:38:47;;;;;;;23.73;16.20;;;15.00;72.70;;;;;;5047700;28;20041;-75
2022/01/29 08:41:13;;;;;;;26.85;17.17;;;16.60;69.50;;;;;;5037814;28;20486;-74
2022/01/29 08:43:40;;;;;;;23.77;16.70;;;17.40;67.80;;;;;;5044804;28;20168;-77
2022/01/29 08:46:06;;;;;;;24.23;17.20;;;18.10;67.20;;;;;;5045413;28;20067;-75
2022/01/29 08:48:33;;;;;;;22.65;16.98;;;18.70;65.90;;;;;;5044881;28;20037;-74
2022/01/29 08:51:00;;;;;;;25.20;17.98;;;19.00;65.10;;;;;;5040031;28;20523;-75
2022/01/29 08:53:26;;;;;;;21.65;17.63;;;19.40;64.30;;;;;;5023007;28;20443;-73
2022/01/29 08:55:53;;;;;;;24.92;16.42;;;19.40;64.00;;;;;;5037632;28;20103;-80
2022/01/29 08:58:20;;;;;;;23.13;16.13;;;19.90;63.00;;;;;;5039991;28;20040;-74
2022/01/29 09:00:48;;;;;;;23.52;15.80;;;19.90;62.50;;;;;;5044559;28;20041;-79
2022/01/29 09:03:16;;;;;;;22.40;14.55;;;20.30;62.40;;;;;;5034648;28;20041;-75
2022/01/29 09:05:44;;;;;;;18.95;13.98;;;20.40;61.10;;;;;;5039854;28;20041;-74
2022/01/29 09:08:13;;;;;;;20.88;15.10;;;21.20;60.20;;;;;;5009811;28;20366;-77
2022/01/29 09:10:40;;;;;;;22.25;17.20;;;21.00;60.60;;;;;;5031527;28;20041;-78
2022/01/29 09:13:07;;;;;;;23.23;16.92;;;20.70;60.30;;;;;;5038772;28;20060;-74
2022/01/29 09:15:34;;;;;;;23.52;16.13;;;20.50;60.80;;;;;;5057569;28;20116;-78
2022/01/29 09:18:00;;;;;;;21.88;17.38;;;20.50;61.10;;;;;;5031279;28;20038;-75
2022/01/29 09:20:27;;;;;;;28.13;18.27;;;20.20;61.20;;;;;;5047516;28;20041;-79
2022/01/29 09:22:54;;;;;;;26.42;17.35;;;19.20;61.90;;;;;;5048924;28;20041;-74
2022/01/29 09:25:21;;;;;;;23.10;16.35;;;18.90;61.80;;;;;;5049457;28;20049;-76
2022/01/29 09:27:48;;;;;;;23.80;16.45;;;18.50;62.00;;;;;;5052802;28;20091;-75
2022/01/29 09:30:14;;;;;;;21.77;16.70;;;18.00;62.60;;;;;;5052947;28;20021;-77
2022/01/29 09:32:39;;;;;;;21.70;15.13;;;17.40;63.40;;;;;;5045552;28;20052;-78
2022/01/29 09:35:06;;;;;;;20.08;15.02;;;17.10;63.50;;;;;;5047200;28;20040;-79
2022/01/29 09:37:34;;;;;;;21.92;15.90;;;17.00;63.20;;;;;;5043036;28;20034;-79
2022/01/29 09:40:00;;;;;;;25.17;15.30;;;16.90;63.90;;;;;;5049694;28;20528;-77
2022/01/29 09:42:28;;;;;;;23.17;16.23;;;16.80;63.50;;;;;;5049140;28;20037;-78
2022/01/29 09:44:55;;;;;;;21.88;16.60;;;16.80;64.30;;;;;;5047309;28;20044;-74
2022/01/29 09:47:23;;;;;;;24.40;15.70;;;16.70;64.30;;;;;;5023725;28;20073;-75
2022/01/29 09:49:51;;;;;;;20.02;14.02;;;16.70;63.80;;;;;;5027688;28;20037;-77
2022/01/29 09:52:18;;;;;;;17.83;12.15;;;17.20;62.40;;;;;;5023630;28;20033;-78
2022/01/29 09:54:49;;;;;;;18.13;10.52;;;17.70;60.20;;;;;;5055662;28;20034;-76
2022/01/29 09:57:16;;;;;;;12.00;9.02;;;18.40;58.80;;;;;;5038328;28;20025;-76
2022/01/29 09:59:42;;;;;;;10.27;8.10;;;19.00;56.50;;;;;;5042641;28;20038;-77
2022/01/29 10:02:17;;;;;;;10.40;8.07;;;19.30;55.40;;;;;;5030759;28;20163;-74
2022/01/29 10:04:56;;;;;;;14.63;8.13;;;19.70;54.70;;;;;;5042213;28;20033;-77
2022/01/29 10:07:26;;;;;;;14.30;7.97;;;19.90;54.10;;;;;;5045294;28;20037;-80
2022/01/29 10:09:55;;;;;;;13.38;8.18;;;20.10;53.80;;;;;;5050068;28;20048;-74
2022/01/29 10:12:30;;;;;;;11.10;7.70;;;20.30;53.30;;;;;;5035750;28;20033;-76
2022/01/29 10:15:03;;;;;;;12.05;7.80;;;20.40;53.50;;;;;;5049313;28;20033;-77
2022/01/29 10:17:53;;;;;;;28.98;9.30;;;20.60;53.40;;;;;;5047815;28;20033;-74
2022/01/29 10:20:27;;;;;;;12.95;8.00;;;20.80;52.90;;;;;;5044844;28;20052;-75
2022/01/29 10:23:02;;;;;;;16.40;8.98;;;21.00;52.60;;;;;;5032345;28;20044;-76
2022/01/29 10:25:33;;;;;;;11.15;8.10;;;21.10;52.80;;;;;;5055575;28;20044;-78
2022/01/29 10:28:17;;;;;;;14.17;8.60;;;21.10;52.80;;;;;;5029558;28;20473;-75
2022/01/29 10:30:49;;;;;;;12.50;8.23;;;21.10;52.80;;;;;;5039799;28;20049;-75
2022/01/29 10:33:38;;;;;;;13.85;8.73;;;21.10;52.90;;;;;;5037345;28;20464;-79
2022/01/29 10:36:07;;;;;;;13.32;7.57;;;21.20;52.70;;;;;;5039753;28;20048;-77
2022/01/29 10:38:43;;;;;;;10.10;7.50;;;21.50;52.40;;;;;;5047582;28;20448;-76
2022/01/29 10:41:22;;;;;;;9.48;7.47;;;21.60;51.70;;;;;;5040505;28;20064;-75
2022/01/29 10:44:14;;;;;;;15.10;9.25;;;21.70;51.90;;;;;;5020439;28;20052;-75
2022/01/29 10:46:56;;;;;;;17.83;12.98;;;21.50;52.40;;;;;;5042448;28;20120;-76
2022/01/29 10:49:29;;;;;;;21.60;15.00;;;21.20;54.60;;;;;;5026751;28;20042;-74
2022/01/29 10:52:01;;;;;;;23.42;15.90;;;21.20;55.30;;;;;;5040399;28;20053;-74
2022/01/29 10:54:31;;;;;;;26.20;17.60;;;21.20;55.80;;;;;;5045656;28;20043;-80
2022/01/29 10:57:06;;;;;;;22.92;18.50;;;21.10;55.90;;;;;;5044392;28;20056;-76
2022/01/29 10:59:36;;;;;;;22.95;17.55;;;21.10;56.00;;;;;;5031038;28;20124;-75
2022/01/29 11:02:11;;;;;;;23.30;18.33;;;21.10;56.10;;;;;;5016718;28;20475;-74
2022/01/29 11:04:45;;;;;;;31.48;19.33;;;21.20;56.70;;;;;;5020944;28;20036;-77
2022/01/29 11:07:17;;;;;;;25.35;19.08;;;21.30;56.90;;;;;;5045091;28;20051;-76
2022/01/29 11:09:47;;;;;;;26.58;18.20;;;21.30;57.20;;;;;;5048718;28;20110;-79
2022/01/29 11:12:23;;;;;;;30.20;18.08;;;21.50;57.10;;;;;;5029987;28;20102;-78
2022/01/29 11:14:52;;;;;;;24.13;19.20;;;22.10;56.80;;;;;;5045063;28;20033;-75
2022/01/29 11:17:18;;;;;;;25.88;19.90;;;22.20;56.40;;;;;;5026326;28;20037;-75
2022/01/29 11:19:45;;;;;;;23.55;18.10;;;22.30;56.40;;;;;;5045130;28;20044;-77
2022/01/29 11:22:12;;;;;;;28.13;20.33;;;22.30;56.60;;;;;;5025767;28;20037;-74
2022/01/29 11:24:42;;;;;;;33.55;22.85;;;22.80;56.70;;;;;;5043167;28;20025;-75
2022/01/29 11:27:20;;;;;;;30.67;22.48;;;23.00;57.10;;;;;;5038228;28;20033;-73
2022/01/29 11:30:05;;;;;;;29.77;22.00;;;23.00;57.50;;;;;;5043659;28;20029;-75
2022/01/29 11:32:33;;;;;;;35.10;24.17;;;23.50;57.50;;;;;;5040498;28;20029;-78
2022/01/29 11:35:20;;;;;;;33.95;22.75;;;23.50;57.80;;;;;;5045006;28;20079;-75
2022/01/29 11:37:51;;;;;;;30.88;23.27;;;23.50;57.70;;;;;;5039906;28;20037;-75
2022/01/29 11:40:34;;;;;;;33.95;24.08;;;23.80;57.70;;;;;;5039602;28;20064;-74
2022/01/29 11:43:22;;;;;;;30.15;22.38;;;23.50;57.90;;;;;;5045678;28;20131;-75
2022/01/29 11:46:15;;;;;;;32.08;23.15;;;23.20;57.50;;;;;;5030032;28;20033;-75
2022/01/29 11:49:17;;;;;;;28.42;21.48;;;22.90;57.70;;;;;;5044725;28;20041;-79
2022/01/29 11:51:49;;;;;;;27.08;19.55;;;22.50;57.40;;;;;;5038493;28;20435;-80
2022/01/29 11:54:20;;;;;;;28.60;20.42;;;22.80;56.90;;;;;;5030479;28;20405;-75
2022/01/29 11:56:48;;;;;;;26.45;21.02;;;23.10;57.00;;;;;;5051721;28;20374;-74
2022/01/29 11:59:28;;;;;;;30.35;20.95;;;23.00;56.60;;;;;;5029315;28;20168;-74
2022/01/29 12:02:00;;;;;;;26.80;21.35;;;23.70;56.80;;;;;;5043859;28;20510;-78
2022/01/29 12:04:48;;;;;;;27.25;21.90;;;24.20;56.20;;;;;;5048085;28;20041;-74
2022/01/29 12:09:48;;;;;;;27.17;21.58;;;25.20;55.90;;;;;;5042768;28;20103;-74
2022/01/29 12:12:26;;;;;;;29.80;22.80;;;25.20;55.70;;;;;;5028601;28;20063;-79
2022/01/29 12:14:55;;;;;;;30.63;22.08;;;26.00;55.30;;;;;;5043469;28;20044;-80
2022/01/29 12:17:45;;;;;;;27.92;22.40;;;26.00;55.00;;;;;;5031657;28;20587;-80
2022/01/29 12:20:13;;;;;;;29.17;23.52;;;26.20;55.60;;;;;;5034186;28;20103;-75
2022/01/29 12:22:41;;;;;;;33.85;22.50;;;26.40;55.70;;;;;;5039733;28;20044;-74
2022/01/29 12:25:11;;;;;;;28.63;22.80;;;26.70;54.60;;;;;;5039143;28;20033;-75
2022/01/29 12:27:59;;;;;;;29.40;23.02;;;26.50;54.50;;;;;;5042039;28;20033;-73
2022/01/29 12:30:34;;;;;;;25.33;22.35;;;26.50;55.10;;;;;;5001958;28;20088;-74
2022/01/29 12:33:08;;;;;;;32.13;23.63;;;26.90;54.60;;;;;;5020350;28;20041;-80
2022/01/29 12:36:05;;;;;;;30.83;23.23;;;26.80;54.50;;;;;;5026024;28;20057;-79
2022/01/29 12:38:37;;;;;;;30.45;22.40;;;26.90;54.80;;;;;;5037777;28;20519;-73
2022/01/29 12:41:25;;;;;;;25.23;20.55;;;27.00;54.30;;;;;;5042672;28;20647;-76
2022/01/29 12:43:54;;;;;;;31.13;21.60;;;26.80;54.10;;;;;;5038016;28;20083;-75
2022/01/29 12:46:22;;;;;;;33.58;20.95;;;26.80;54.10;;;;;;5043157;28;20047;-74
2022/01/29 12:49:04;;;;;;;28.13;21.85;;;26.70;54.10;;;;;;5048326;28;20037;-75
2022/01/29 12:51:29;;;;;;;;;;;27.10;53.80;;;;;;5038913;28;20041;-75
2022/01/29 12:54:01;;;;;;;28.33;19.85;;;26.90;53.50;;;;;;5027011;28;19963;-74
2022/01/29 12:56:36;;;;;;;28.00;20.10;;;26.70;52.80;;;;;;5046114;28;20036;-80
2022/01/29 12:59:05;;;;;;;26.85;19.52;;;27.30;52.80;;;;;;5044572;28;20053;-75